Time;durP1;ratioP1;P1;durP2;ratioP2;P2;SDS_P1;SDS_P2;PMS_P1;PMS_P2;Temp;Humidity;BMP_temperature;BMP_pressure;BME280_temperature;BME280_humidity;BME280_pressure;Samples;Min_cycle;Max_cycle;Signal;HPM_P1;HPM_P2
2021/09/11 00:01:24;;;;;;;8.45;5.63;;;18.60;79.00;;;;;;4982807;28;20508;-88
2021/09/11 00:03:50;;;;;;;11.68;5.65;;;18.70;78.80;;;;;;4980664;28;20033;-87
2021/09/11 00:06:16;;;;;;;10.48;5.47;;;18.70;78.60;;;;;;4979982;28;20031;-87
2021/09/11 00:08:41;;;;;;;7.93;5.40;;;18.60;78.60;;;;;;4981442;28;20363;-87
2021/09/11 00:11:07;;;;;;;12.98;6.28;;;18.60;78.90;;;;;;4981981;28;21039;-87
2021/09/11 00:13:33;;;;;;;9.20;5.40;;;18.70;78.70;;;;;;4980377;28;20077;-87
2021/09/11 00:15:59;;;;;;;7.38;5.57;;;18.70;78.60;;;;;;4963899;28;20038;-87
2021/09/11 00:18:25;;;;;;;9.25;5.80;;;18.70;78.30;;;;;;4979087;28;20126;-87
2021/09/11 00:20:51;;;;;;;8.57;5.78;;;18.70;78.00;;;;;;4980985;28;20505;-86
2021/09/11 00:23:17;;;;;;;10.13;5.93;;;18.60;77.70;;;;;;4980245;28;20037;-87
2021/09/11 00:25:43;;;;;;;8.40;5.75;;;18.60;77.70;;;;;;4984247;28;20041;-87
2021/09/11 00:28:09;;;;;;;13.52;6.60;;;18.60;77.60;;;;;;4986188;28;20073;-87
2021/09/11 00:30:35;;;;;;;7.65;5.60;;;18.50;77.70;;;;;;4983912;28;20417;-86
2021/09/11 00:33:01;;;;;;;10.60;5.88;;;18.50;78.10;;;;;;4984012;28;20045;-86
2021/09/11 00:35:27;;;;;;;12.07;5.85;;;18.50;78.30;;;;;;4989285;28;20959;-84
2021/09/11 00:37:53;;;;;;;8.27;5.72;;;18.50;78.20;;;;;;4991401;28;20041;-88
2021/09/11 00:40:20;;;;;;;10.38;5.57;;;18.50;78.20;;;;;;4969724;28;21586;-87
2021/09/11 00:42:49;;;;;;;8.32;6.03;;;18.50;78.10;;;;;;4986814;28;20099;-87
2021/09/11 00:45:16;;;;;;;11.40;6.72;;;18.50;78.00;;;;;;4984697;28;20170;-87
2021/09/11 00:47:42;;;;;;;10.55;5.82;;;18.50;77.90;;;;;;4982117;28;20507;-88
2021/09/11 00:50:09;;;;;;;8.30;6.32;;;18.50;77.80;;;;;;4984154;28;20038;-86
2021/09/11 00:52:36;;;;;;;8.80;5.88;;;18.50;77.90;;;;;;4985545;28;20031;-86
2021/09/11 00:55:02;;;;;;;8.65;6.45;;;18.50;77.80;;;;;;4983768;28;20026;-87
2021/09/11 00:57:28;;;;;;;11.27;6.38;;;18.50;77.60;;;;;;4986431;28;20034;-86
2021/09/11 00:59:54;;;;;;;8.93;6.07;;;18.40;77.50;;;;;;4989684;28;20137;-87
2021/09/11 01:02:20;;;;;;;10.88;6.57;;;18.40;77.50;;;;;;4985336;28;20118;-86
2021/09/11 01:04:46;;;;;;;11.38;6.35;;;18.40;77.50;;;;;;4984997;28;20034;-86
2021/09/11 01:07:11;;;;;;;9.20;6.32;;;18.40;77.40;;;;;;4985334;28;20030;-85
2021/09/11 01:09:37;;;;;;;9.52;6.18;;;18.40;77.80;;;;;;4982179;28;20568;-86
2021/09/11 01:12:05;;;;;;;8.38;5.82;;;18.40;77.70;;;;;;4985024;28;20076;-87
2021/09/11 01:14:31;;;;;;;11.85;6.63;;;18.40;77.70;;;;;;4983375;28;20048;-88
2021/09/11 01:16:56;;;;;;;8.52;6.22;;;18.40;77.70;;;;;;4982757;28;20039;-87
2021/09/11 01:19:22;;;;;;;13.07;6.43;;;18.40;77.70;;;;;;4984855;28;20037;-87
2021/09/11 01:21:48;;;;;;;7.55;6.00;;;18.30;77.70;;;;;;4984708;28;20034;-86
2021/09/11 01:24:14;;;;;;;8.93;6.20;;;18.30;77.40;;;;;;4983724;28;20035;-87
2021/09/11 01:26:40;;;;;;;8.05;6.18;;;18.30;77.40;;;;;;4984371;28;20034;-86
2021/09/11 01:29:10;;;;;;;7.93;6.30;;;18.30;77.30;;;;;;4984232;28;20544;-87
2021/09/11 01:31:37;;;;;;;7.55;6.15;;;18.30;77.30;;;;;;4973951;28;20036;-86
2021/09/11 01:34:03;;;;;;;8.88;6.15;;;18.30;77.10;;;;;;4984309;28;20040;-86
2021/09/11 01:36:29;;;;;;;7.72;5.30;;;18.30;76.90;;;;;;4983913;28;20035;-87
2021/09/11 01:38:55;;;;;;;8.30;6.10;;;18.30;77.00;;;;;;4984975;28;20501;-88
2021/09/11 01:41:21;;;;;;;11.43;6.75;;;18.30;77.10;;;;;;4982563;28;20093;-87
2021/09/11 01:43:47;;;;;;;8.70;6.50;;;18.30;77.00;;;;;;4982631;28;20444;-86
2021/09/11 01:46:13;;;;;;;9.70;6.72;;;18.30;76.90;;;;;;4982639;28;20041;-87
2021/09/11 01:48:40;;;;;;;9.98;7.30;;;18.30;76.90;;;;;;4986461;28;20026;-88
2021/09/11 01:51:06;;;;;;;8.63;6.50;;;18.30;76.70;;;;;;4985553;28;20058;-87
2021/09/11 01:53:32;;;;;;;9.18;7.00;;;18.30;76.70;;;;;;4985457;28;20068;-87
2021/09/11 01:55:58;;;;;;;9.57;6.80;;;18.20;76.60;;;;;;4981862;28;20077;-88
2021/09/11 01:58:24;;;;;;;8.80;6.15;;;18.30;76.60;;;;;;4982597;28;20493;-88
2021/09/11 02:00:50;;;;;;;9.02;6.30;;;18.20;76.50;;;;;;4984785;28;20497;-87
2021/09/11 02:03:17;;;;;;;8.73;6.15;;;18.20;76.40;;;;;;4982381;28;20522;-87
2021/09/11 02:05:43;;;;;;;11.23;6.55;;;18.20;76.50;;;;;;4983177;28;20022;-86
2021/09/11 02:08:09;;;;;;;9.30;6.63;;;18.20;76.70;;;;;;4982809;28;20089;-85
2021/09/11 02:10:35;;;;;;;9.27;6.57;;;18.20;76.50;;;;;;4985308;28;20445;-86
2021/09/11 02:13:01;;;;;;;9.30;6.70;;;18.20;76.50;;;;;;4984347;28;20049;-87
2021/09/11 02:15:27;;;;;;;9.45;7.07;;;18.20;76.40;;;;;;4983219;28;20034;-85
2021/09/11 02:17:53;;;;;;;7.95;6.00;;;18.20;76.90;;;;;;4984849;28;20092;-86
2021/09/11 02:20:19;;;;;;;10.32;6.65;;;18.20;76.60;;;;;;4980751;28;20030;-88
2021/09/11 02:22:45;;;;;;;7.93;6.40;;;18.20;76.70;;;;;;4984962;28;20129;-88
2021/09/11 02:25:11;;;;;;;8.55;6.68;;;18.10;76.90;;;;;;4982589;28;20041;-86
2021/09/11 02:27:38;;;;;;;9.65;6.47;;;18.10;77.00;;;;;;4982934;28;20031;-87
2021/09/11 02:30:04;;;;;;;10.38;6.50;;;18.20;76.90;;;;;;4982278;28;20559;-87
2021/09/11 02:32:30;;;;;;;9.88;7.30;;;18.20;77.00;;;;;;4980228;28;20034;-86
2021/09/11 02:34:56;;;;;;;11.27;7.60;;;18.10;77.00;;;;;;4982598;28;20041;-86
2021/09/11 02:37:22;;;;;;;8.05;6.68;;;18.10;76.90;;;;;;4981878;28;20038;-86
2021/09/11 02:39:48;;;;;;;8.40;6.10;;;18.10;76.90;;;;;;4985635;28;20614;-86
2021/09/11 02:42:14;;;;;;;8.95;6.50;;;18.20;77.30;;;;;;4983453;28;20615;-86
2021/09/11 02:44:40;;;;;;;12.02;6.47;;;18.10;77.50;;;;;;4983856;28;20038;-85
2021/09/11 02:47:05;;;;;;;10.68;6.90;;;18.10;77.50;;;;;;4984898;28;20061;-86
2021/09/11 02:49:32;;;;;;;9.95;7.35;;;18.20;77.50;;;;;;4981796;28;20401;-86
2021/09/11 02:51:57;;;;;;;9.20;7.45;;;18.10;77.20;;;;;;4964990;28;20533;-86
2021/09/11 02:54:23;;;;;;;9.55;7.15;;;18.20;77.00;;;;;;4983852;28;20121;-86
2021/09/11 02:56:49;;;;;;;12.32;7.35;;;18.20;77.10;;;;;;4982798;28;20425;-86
2021/09/11 02:59:15;;;;;;;9.23;7.57;;;18.10;77.00;;;;;;4991862;28;20054;-87
2021/09/11 03:01:41;;;;;;;8.98;6.60;;;18.10;76.80;;;;;;4983435;28;20042;-86
2021/09/11 03:04:07;;;;;;;12.07;7.07;;;18.10;76.70;;;;;;4985428;28;20045;-86
2021/09/11 03:06:33;;;;;;;9.52;6.60;;;18.10;76.80;;;;;;4981584;28;20035;-86
2021/09/11 03:08:59;;;;;;;9.70;7.35;;;18.10;77.10;;;;;;4980870;28;20100;-86
2021/09/11 03:11:25;;;;;;;8.85;6.95;;;18.10;77.20;;;;;;4982800;28;20049;-86
2021/09/11 03:13:51;;;;;;;7.80;6.60;;;18.10;77.20;;;;;;4980965;28;20063;-86
2021/09/11 03:16:16;;;;;;;10.15;6.25;;;18.10;77.40;;;;;;4983136;28;20121;-86
2021/09/11 03:18:42;;;;;;;12.05;7.97;;;18.10;77.40;;;;;;4982125;28;20033;-86
2021/09/11 03:21:08;;;;;;;9.52;7.20;;;18.10;77.10;;;;;;4982281;28;20409;-85
2021/09/11 03:23:34;;;;;;;10.40;6.75;;;18.10;76.90;;;;;;4981726;28;20136;-86
2021/09/11 03:26:00;;;;;;;10.98;6.70;;;18.10;76.80;;;;;;4966077;28;20026;-87
2021/09/11 03:28:26;;;;;;;9.68;6.65;;;18.10;76.90;;;;;;4968738;28;20045;-86
2021/09/11 03:30:52;;;;;;;9.80;6.38;;;18.10;76.80;;;;;;4981214;28;20030;-86
2021/09/11 03:33:18;;;;;;;11.30;7.07;;;18.10;76.70;;;;;;4979543;28;20405;-86
2021/09/11 03:35:44;;;;;;;13.05;7.05;;;18.10;76.60;;;;;;4983946;28;20519;-85
2021/09/11 03:38:10;;;;;;;7.50;6.32;;;18.10;76.50;;;;;;4982360;28;20037;-85
2021/09/11 03:40:35;;;;;;;9.40;6.50;;;18.10;76.60;;;;;;4983134;28;20039;-85
2021/09/11 03:43:01;;;;;;;7.95;5.88;;;18.10;76.90;;;;;;4977804;28;20066;-86
2021/09/11 03:45:27;;;;;;;10.07;6.63;;;18.10;77.00;;;;;;4981554;28;20131;-85
2021/09/11 03:47:53;;;;;;;9.27;6.60;;;18.10;77.50;;;;;;4982968;28;20030;-86
2021/09/11 03:50:19;;;;;;;8.60;6.43;;;18.10;77.10;;;;;;4979255;28;20030;-87
2021/09/11 03:52:45;;;;;;;11.40;6.72;;;18.10;77.10;;;;;;4981839;28;20082;-86
2021/09/11 03:55:11;;;;;;;11.00;6.88;;;18.10;77.10;;;;;;4982303;28;20401;-87
2021/09/11 03:57:37;;;;;;;8.35;6.53;;;18.10;77.00;;;;;;4981909;28;20429;-87
2021/09/11 04:00:04;;;;;;;8.40;6.47;;;18.20;76.90;;;;;;4980040;28;20382;-86
2021/09/11 04:02:37;;;;;;;7.18;6.38;;;18.20;76.80;;;;;;4981595;28;20129;-86
2021/09/11 04:05:03;;;;;;;9.30;6.95;;;18.20;76.70;;;;;;4982767;28;20026;-86
2021/09/11 04:07:29;;;;;;;9.07;6.05;;;18.20;76.60;;;;;;4977706;28;20030;-85
2021/09/11 04:09:55;;;;;;;7.18;6.40;;;18.20;76.90;;;;;;4986742;28;20022;-86
2021/09/11 04:12:21;;;;;;;8.90;6.53;;;18.20;77.00;;;;;;4968117;28;20049;-86
2021/09/11 04:14:47;;;;;;;9.45;6.60;;;18.20;76.70;;;;;;4981051;28;20042;-86
2021/09/11 04:17:12;;;;;;;7.70;6.47;;;18.30;76.90;;;;;;4984471;28;20041;-86
2021/09/11 04:19:38;;;;;;;9.73;6.40;;;18.20;76.90;;;;;;4980466;28;20066;-86
2021/09/11 04:22:04;;;;;;;10.48;5.97;;;18.20;76.70;;;;;;4981921;28;20046;-86
2021/09/11 04:24:30;;;;;;;9.90;6.30;;;18.30;76.70;;;;;;4981567;28;20373;-87
2021/09/11 04:26:56;;;;;;;9.07;6.28;;;18.30;76.60;;;;;;4978925;28;20035;-86
2021/09/11 04:29:22;;;;;;;9.75;6.50;;;18.30;76.40;;;;;;4980050;28;20033;-87
2021/09/11 04:31:48;;;;;;;8.75;5.90;;;18.20;76.50;;;;;;4984546;28;20031;-85
2021/09/11 04:34:13;;;;;;;10.38;6.38;;;18.30;76.60;;;;;;4983102;28;20038;-87
2021/09/11 04:36:39;;;;;;;9.80;6.20;;;18.30;76.50;;;;;;4982018;28;20055;-86
2021/09/11 04:39:05;;;;;;;7.78;5.72;;;18.30;76.40;;;;;;4982672;28;20525;-86
2021/09/11 04:41:31;;;;;;;9.40;5.57;;;18.30;76.30;;;;;;4982045;28;20490;-86
2021/09/11 04:43:57;;;;;;;8.18;5.68;;;18.30;76.30;;;;;;4980520;28;20397;-86
2021/09/11 04:46:23;;;;;;;8.60;6.25;;;18.30;76.40;;;;;;4979959;28;20489;-87
2021/09/11 04:48:49;;;;;;;8.10;6.30;;;18.30;76.90;;;;;;4981902;28;20673;-85
2021/09/11 04:51:14;;;;;;;10.00;5.60;;;18.30;76.40;;;;;;4963271;28;20528;-87
2021/09/11 04:53:40;;;;;;;10.35;6.50;;;18.40;76.60;;;;;;4982598;28;20157;-87
2021/09/11 04:56:06;;;;;;;9.35;5.40;;;18.40;76.40;;;;;;4981334;28;20049;-87
2021/09/11 04:58:32;;;;;;;7.57;6.35;;;18.40;76.50;;;;;;4979304;28;20038;-86
2021/09/11 05:00:58;;;;;;;7.85;5.85;;;18.40;76.40;;;;;;4980083;28;20112;-87
2021/09/11 05:03:24;;;;;;;9.52;5.75;;;18.40;76.60;;;;;;4981703;28;20050;-85
2021/09/11 05:05:53;;;;;;;8.82;5.93;;;18.40;76.60;;;;;;4980923;28;20041;-86
2021/09/11 05:08:19;;;;;;;6.88;5.38;;;18.60;76.60;;;;;;4981523;28;20030;-86
2021/09/11 05:10:45;;;;;;;6.07;5.20;;;18.80;76.60;;;;;;4978893;28;20035;-87
2021/09/11 05:13:11;;;;;;;6.43;4.78;;;19.10;76.70;;;;;;4982687;28;20939;-87
2021/09/11 05:15:37;;;;;;;5.85;5.03;;;19.30;76.60;;;;;;4983306;28;20470;-86
2021/09/11 05:18:03;;;;;;;5.50;4.60;;;19.60;76.50;;;;;;4984136;28;20053;-85
2021/09/11 05:20:29;;;;;;;5.75;4.63;;;19.80;76.40;;;;;;4987071;28;20511;-86
2021/09/11 05:22:55;;;;;;;5.70;4.38;;;20.00;76.10;;;;;;4982371;28;20093;-86
2021/09/11 05:25:21;;;;;;;7.15;4.35;;;20.20;75.90;;;;;;4985505;28;20512;-86
2021/09/11 05:27:46;;;;;;;6.35;4.60;;;20.30;75.60;;;;;;4982265;28;20486;-86
2021/09/11 05:30:13;;;;;;;6.20;3.80;;;20.40;75.50;;;;;;4983946;28;20027;-86
2021/09/11 05:32:39;;;;;;;4.43;3.95;;;20.50;75.40;;;;;;4983247;28;20441;-86
2021/09/11 05:35:06;;;;;;;4.50;3.75;;;20.60;75.40;;;;;;4982746;28;20780;-86
2021/09/11 05:37:32;;;;;;;5.70;3.70;;;20.70;75.40;;;;;;4985582;28;20031;-87
2021/09/11 05:39:58;;;;;;;4.30;3.90;;;20.70;75.40;;;;;;4985382;28;20089;-86
2021/09/11 05:42:24;;;;;;;6.97;3.42;;;20.90;75.40;;;;;;4986357;28;20066;-85
2021/09/11 05:44:49;;;;;;;3.70;3.38;;;20.90;75.30;;;;;;4982560;28;20030;-87
2021/09/11 05:47:15;;;;;;;4.43;3.80;;;21.00;75.10;;;;;;4984647;28;20046;-87
2021/09/11 05:49:41;;;;;;;4.35;3.75;;;21.10;75.10;;;;;;4982737;28;20030;-87
2021/09/11 05:52:07;;;;;;;7.20;3.80;;;21.20;75.10;;;;;;4985139;28;20030;-87
2021/09/11 05:54:33;;;;;;;4.10;3.15;;;21.30;75.00;;;;;;4982913;28;20034;-85
2021/09/11 05:56:59;;;;;;;4.35;3.45;;;21.20;74.90;;;;;;4983678;28;20034;-86
2021/09/11 05:59:25;;;;;;;4.13;3.50;;;21.30;74.80;;;;;;4982601;28;20062;-86
2021/09/11 06:01:51;;;;;;;3.63;3.17;;;21.30;74.90;;;;;;4966985;28;20045;-86
2021/09/11 06:04:17;;;;;;;5.28;3.08;;;21.30;75.00;;;;;;4982439;28;20043;-85
2021/09/11 06:06:42;;;;;;;5.53;3.53;;;21.30;74.90;;;;;;4987612;28;20076;-86
2021/09/11 06:09:08;;;;;;;4.60;2.78;;;21.30;75.00;;;;;;4981750;28;20046;-85
2021/09/11 06:11:34;;;;;;;4.40;3.13;;;21.40;74.90;;;;;;4986690;28;20581;-85
2021/09/11 06:14:00;;;;;;;5.13;3.30;;;21.50;74.90;;;;;;4981819;28;20030;-87
2021/09/11 06:16:26;;;;;;;4.72;3.33;;;21.60;74.70;;;;;;4967025;28;20043;-87
2021/09/11 06:18:52;;;;;;;4.82;2.97;;;21.50;74.70;;;;;;4984112;28;20034;-86
2021/09/11 06:21:18;;;;;;;6.53;3.38;;;21.50;74.60;;;;;;4983118;28;20362;-88
2021/09/11 06:23:44;;;;;;;4.95;3.15;;;21.50;74.80;;;;;;4983056;28;20077;-85
2021/09/11 06:26:09;;;;;;;5.78;2.92;;;21.60;74.80;;;;;;4983379;28;20033;-86
2021/09/11 06:28:35;;;;;;;5.80;3.20;;;21.50;74.70;;;;;;4984759;28;20117;-86
2021/09/11 06:31:01;;;;;;;5.43;2.92;;;21.50;74.80;;;;;;4987478;28;20030;-85
2021/09/11 06:33:27;;;;;;;6.50;3.40;;;21.50;74.80;;;;;;4980703;28;20050;-85
2021/09/11 06:35:53;;;;;;;4.57;3.17;;;21.50;75.00;;;;;;4983567;28;20042;-85
2021/09/11 06:38:19;;;;;;;3.65;2.63;;;21.40;74.80;;;;;;4981583;28;20030;-85
2021/09/11 06:40:45;;;;;;;6.13;2.83;;;21.40;74.90;;;;;;4981017;28;20044;-84
2021/09/11 06:43:11;;;;;;;5.20;3.30;;;21.40;75.10;;;;;;4983037;28;20045;-86
2021/09/11 06:45:36;;;;;;;4.88;2.80;;;21.30;75.10;;;;;;4982874;28;20045;-87
2021/09/11 06:48:03;;;;;;;4.75;3.13;;;21.30;75.00;;;;;;4984859;28;20030;-86
2021/09/11 06:50:29;;;;;;;4.80;2.90;;;21.30;75.00;;;;;;4966078;28;20117;-87
2021/09/11 06:52:54;;;;;;;4.68;3.08;;;21.30;75.10;;;;;;4979886;28;20165;-86
2021/09/11 06:55:20;;;;;;;5.07;3.17;;;21.30;75.30;;;;;;4983405;28;20103;-85
2021/09/11 06:57:46;;;;;;;5.63;3.10;;;21.30;75.30;;;;;;4981384;28;20464;-86
2021/09/11 07:00:13;;;;;;;5.40;3.30;;;21.30;75.20;;;;;;4980829;28;20549;-85
2021/09/11 07:02:39;;;;;;;5.15;3.08;;;21.30;75.40;;;;;;4981641;28;20038;-85
2021/09/11 07:05:05;;;;;;;4.85;3.55;;;21.40;75.40;;;;;;4981460;28;20898;-85
2021/09/11 07:07:34;;;;;;;4.03;3.28;;;21.40;75.20;;;;;;4983993;28;20692;-86
2021/09/11 07:10:00;;;;;;;6.30;3.45;;;21.30;74.90;;;;;;4982557;28;20049;-85
2021/09/11 07:12:26;;;;;;;6.78;3.30;;;21.40;75.30;;;;;;4979515;28;20038;-86
2021/09/11 07:14:51;;;;;;;5.53;3.45;;;21.40;75.30;;;;;;4982239;28;20034;-85
2021/09/11 07:17:17;;;;;;;6.15;3.60;;;21.40;75.20;;;;;;4967924;28;20500;-84
2021/09/11 07:19:43;;;;;;;6.10;3.55;;;21.40;74.80;;;;;;4984588;28;20396;-85
2021/09/11 07:22:09;;;;;;;6.28;3.22;;;21.40;74.80;;;;;;4983034;28;20049;-84
2021/09/11 07:24:35;;;;;;;4.47;3.20;;;21.40;75.00;;;;;;4981649;28;20034;-84
2021/09/11 07:27:01;;;;;;;6.15;3.63;;;21.40;75.10;;;;;;4983444;28;20042;-85
2021/09/11 07:29:27;;;;;;;5.88;3.40;;;21.40;75.00;;;;;;4981426;28;20066;-84
2021/09/11 07:31:52;;;;;;;6.75;3.78;;;21.40;74.90;;;;;;4989451;28;20034;-84
2021/09/11 07:34:18;;;;;;;7.70;4.30;;;21.40;74.90;;;;;;4989709;28;20037;-86
2021/09/11 07:36:44;;;;;;;8.75;4.28;;;21.40;74.30;;;;;;4983577;28;20037;-86
2021/09/11 07:39:10;;;;;;;7.75;4.68;;;21.30;74.10;;;;;;4964487;28;20045;-84
2021/09/11 07:41:36;;;;;;;12.57;4.90;;;21.30;73.10;;;;;;4990394;28;20050;-87
2021/09/11 07:44:02;;;;;;;9.52;4.90;;;21.30;72.70;;;;;;4991332;28;20444;-85
2021/09/11 07:46:28;;;;;;;9.00;4.60;;;21.20;72.90;;;;;;4992016;28;20030;-85
2021/09/11 07:48:54;;;;;;;9.13;4.70;;;21.30;72.90;;;;;;4988299;28;20034;-85
2021/09/11 07:51:20;;;;;;;9.07;4.95;;;21.20;72.80;;;;;;4973453;28;20057;-86
2021/09/11 07:53:45;;;;;;;10.88;4.80;;;21.20;72.90;;;;;;4988792;28;20045;-88
2021/09/11 07:56:11;;;;;;;6.88;4.38;;;21.20;72.90;;;;;;4993198;28;20049;-87
2021/09/11 07:58:37;;;;;;;6.35;4.30;;;21.20;73.10;;;;;;4988046;28;20046;-85
2021/09/11 08:01:03;;;;;;;13.18;4.50;;;21.20;73.50;;;;;;4974824;28;20085;-86
2021/09/11 08:03:29;;;;;;;8.73;4.60;;;21.20;73.40;;;;;;4971320;28;20031;-86
2021/09/11 08:05:55;;;;;;;7.88;4.13;;;21.20;73.20;;;;;;4989884;28;20076;-87
2021/09/11 08:08:22;;;;;;;11.73;4.32;;;21.20;73.20;;;;;;4991343;28;20074;-87
2021/09/11 08:10:48;;;;;;;9.88;4.45;;;21.30;73.40;;;;;;4990546;28;20085;-86
2021/09/11 08:13:15;;;;;;;9.45;4.30;;;21.30;73.10;;;;;;4986461;28;20039;-87
2021/09/11 08:15:45;;;;;;;11.60;4.03;;;21.30;73.20;;;;;;4984567;28;20467;-85
2021/09/11 08:18:11;;;;;;;7.88;3.78;;;21.30;72.80;;;;;;5001854;28;20041;-87
2021/09/11 08:20:38;;;;;;;6.68;3.30;;;21.30;72.70;;;;;;4992282;28;20548;-89
2021/09/11 08:23:04;;;;;;;7.53;3.50;;;21.30;72.80;;;;;;4989942;28;20084;-90
2021/09/11 08:25:31;;;;;;;6.03;3.45;;;21.30;72.50;;;;;;4991190;28;20517;-89
2021/09/11 08:27:57;;;;;;;9.00;3.63;;;21.30;72.50;;;;;;4976504;28;20062;-89
2021/09/11 08:30:23;;;;;;;9.07;4.13;;;21.30;72.20;;;;;;4990699;28;20026;-90
2021/09/11 08:32:49;;;;;;;6.07;3.80;;;21.30;73.10;;;;;;4990744;28;20030;-90
2021/09/11 08:35:16;;;;;;;8.40;4.05;;;21.30;72.60;;;;;;4992003;28;20027;-87
2021/09/11 08:37:43;;;;;;;8.27;3.88;;;21.30;72.90;;;;;;4992938;28;20113;-86
2021/09/11 08:40:11;;;;;;;8.55;4.05;;;21.20;72.50;;;;;;4984173;28;20050;-86
2021/09/11 08:42:38;;;;;;;7.32;3.60;;;21.30;72.50;;;;;;4981666;28;20039;-87
2021/09/11 08:45:05;;;;;;;11.63;4.07;;;21.30;72.20;;;;;;4981064;28;20504;-86
2021/09/11 08:47:31;;;;;;;6.10;3.80;;;21.30;72.40;;;;;;4988749;28;20069;-86
2021/09/11 08:49:56;;;;;;;5.90;3.70;;;21.30;72.50;;;;;;4983588;28;20148;-86
2021/09/11 08:52:22;;;;;;;6.65;3.78;;;21.30;72.50;;;;;;4988590;28;20030;-88
2021/09/11 08:54:48;;;;;;;5.47;3.50;;;21.30;72.20;;;;;;4969296;28;20041;-86
2021/09/11 08:57:24;;;;;;;4.75;3.78;;;21.30;72.10;;;;;;4984794;28;20042;-87
2021/09/11 08:59:52;;;;;;;7.03;3.70;;;21.30;71.90;;;;;;4983466;28;20050;-83
2021/09/11 09:02:20;;;;;;;7.10;3.42;;;21.30;71.90;;;;;;4983443;28;20429;-84
2021/09/11 09:04:57;;;;;;;5.18;3.28;;;21.30;71.60;;;;;;4984651;28;20042;-82
2021/09/11 09:07:30;;;;;;;4.47;3.33;;;21.30;71.20;;;;;;4985148;28;20026;-84
2021/09/11 09:10:12;;;;;;;6.88;3.33;;;21.30;70.80;;;;;;4985420;28;20114;-84
2021/09/11 09:12:47;;;;;;;5.97;3.38;;;21.20;70.80;;;;;;4982804;28;20034;-83
2021/09/11 09:15:24;;;;;;;4.25;3.63;;;21.20;70.80;;;;;;4982492;28;20038;-83
2021/09/11 09:17:53;;;;;;;5.28;3.80;;;21.20;71.00;;;;;;4987604;28;20062;-83
2021/09/11 09:20:28;;;;;;;5.65;3.42;;;21.20;71.00;;;;;;4982949;28;20027;-83
2021/09/11 09:22:59;;;;;;;8.23;3.85;;;21.20;71.40;;;;;;4984086;28;20066;-86
2021/09/11 09:25:36;;;;;;;6.22;4.07;;;21.20;71.90;;;;;;4991289;28;20032;-88
2021/09/11 09:28:08;;;;;;;7.15;4.50;;;21.20;72.90;;;;;;4976613;28;20030;-86
2021/09/11 09:30:48;;;;;;;7.80;4.63;;;21.30;73.90;;;;;;4992772;28;20038;-86
2021/09/11 09:33:22;;;;;;;4.70;3.90;;;21.30;73.90;;;;;;4993091;28;20035;-87
2021/09/11 09:35:51;;;;;;;11.05;4.28;;;21.30;74.20;;;;;;4981519;28;20555;-89
2021/09/11 09:38:18;;;;;;;9.52;4.10;;;21.30;74.10;;;;;;4992602;28;20089;-86
2021/09/11 09:40:53;;;;;;;8.65;3.83;;;21.30;74.30;;;;;;4993216;28;20093;-87
2021/09/11 09:43:32;;;;;;;5.63;4.00;;;21.30;74.40;;;;;;4991696;28;20512;-86
2021/09/11 09:46:10;;;;;;;6.03;3.75;;;21.40;74.50;;;;;;4989501;28;20031;-89
2021/09/11 09:48:38;;;;;;;5.90;3.53;;;21.40;73.80;;;;;;4992789;28;20026;-84
2021/09/11 09:51:07;;;;;;;5.85;4.00;;;21.40;73.10;;;;;;4993529;28;20083;-83
2021/09/11 09:53:38;;;;;;;7.88;4.20;;;21.30;73.00;;;;;;4990781;28;20042;-85
2021/09/11 09:56:05;;;;;;;6.43;3.80;;;21.30;72.70;;;;;;4979053;28;20031;-83
2021/09/11 09:58:32;;;;;;;6.22;3.78;;;21.30;72.50;;;;;;4993785;28;20049;-84
2021/09/11 10:00:58;;;;;;;6.22;3.63;;;21.30;72.30;;;;;;4992362;28;20492;-83
2021/09/11 10:03:24;;;;;;;9.52;3.65;;;21.30;72.30;;;;;;4992167;28;20089;-82
2021/09/11 10:05:57;;;;;;;7.13;4.07;;;21.20;72.70;;;;;;4995914;28;20121;-82
2021/09/11 10:08:26;;;;;;;7.53;3.50;;;21.20;72.60;;;;;;4995625;28;20036;-83
2021/09/11 10:10:52;;;;;;;7.10;3.80;;;21.20;72.40;;;;;;4975797;28;20507;-82
2021/09/11 10:13:26;;;;;;;4.57;3.70;;;21.20;72.20;;;;;;4980919;28;20046;-83
2021/09/11 10:16:04;;;;;;;8.68;3.50;;;21.10;72.10;;;;;;4984636;28;20042;-82
2021/09/11 10:18:30;;;;;;;4.95;3.47;;;21.10;71.70;;;;;;4982920;28;20045;-82
2021/09/11 10:21:35;;;;;;;4.20;3.33;;;21.10;71.60;;;;;;4981001;28;20043;-85
2021/09/11 10:24:00;;;;;;;6.25;3.30;;;21.10;71.50;;;;;;4983886;28;20040;-83
2021/09/11 10:26:47;;;;;;;3.95;3.40;;;21.00;71.70;;;;;;4980631;28;20495;-82
2021/09/11 10:29:34;;;;;;;5.57;3.20;;;21.00;72.00;;;;;;4979630;28;20165;-83
2021/09/11 10:32:00;;;;;;;5.47;3.30;;;21.00;71.80;;;;;;4982014;28;20065;-83
2021/09/11 10:34:57;;;;;;;7.75;3.13;;;21.10;71.80;;;;;;4984227;28;20050;-82
2021/09/11 10:37:37;;;;;;;4.78;3.08;;;21.00;72.50;;;;;;4981177;28;20040;-83
2021/09/11 10:40:21;;;;;;;5.43;3.45;;;21.00;71.80;;;;;;4982302;28;20038;-83
2021/09/11 10:43:14;;;;;;;4.38;3.25;;;21.00;71.90;;;;;;4981678;28;20031;-82
2021/09/11 10:46:02;;;;;;;6.32;3.53;;;21.00;72.00;;;;;;4980945;28;20108;-83
2021/09/11 10:48:40;;;;;;;7.28;3.30;;;21.00;71.80;;;;;;4981469;28;20034;-84
2021/09/11 10:51:24;;;;;;;5.30;3.83;;;21.00;71.70;;;;;;4967263;28;20038;-82
2021/09/11 10:54:09;;;;;;;8.90;3.90;;;21.00;71.90;;;;;;4979747;28;20038;-83
2021/09/11 10:56:48;;;;;;;7.03;3.92;;;21.00;72.10;;;;;;4982842;28;20042;-82
2021/09/11 10:59:14;;;;;;;7.60;4.40;;;21.00;72.10;;;;;;4981845;28;20058;-83
2021/09/11 11:02:09;;;;;;;6.47;4.15;;;21.00;72.20;;;;;;4983123;28;20041;-84
2021/09/11 11:04:38;;;;;;;7.03;4.22;;;21.00;72.30;;;;;;4949563;28;20109;-84
2021/09/11 11:07:10;;;;;;;7.88;4.22;;;21.00;72.30;;;;;;4980715;28;20040;-84
2021/09/11 11:09:45;;;;;;;9.82;4.47;;;21.00;72.70;;;;;;4982159;28;20031;-84
2021/09/11 11:12:13;;;;;;;8.48;4.13;;;21.00;72.60;;;;;;4980987;28;20097;-83
2021/09/11 11:14:47;;;;;;;9.02;4.50;;;21.00;72.70;;;;;;4983078;28;20034;-84
2021/09/11 11:17:18;;;;;;;6.33;4.40;;;21.00;72.80;;;;;;4969026;28;20031;-84
2021/09/11 11:19:48;;;;;;;5.85;4.45;;;21.00;72.80;;;;;;4993557;28;20038;-84
2021/09/11 11:22:28;;;;;;;8.80;4.53;;;21.00;73.00;;;;;;4993493;28;20031;-83
2021/09/11 11:24:55;;;;;;;7.07;4.35;;;21.00;73.10;;;;;;4996989;28;20053;-83
2021/09/11 11:27:23;;;;;;;6.40;4.53;;;21.00;73.10;;;;;;4996034;28;20011;-83
2021/09/11 11:29:51;;;;;;;7.20;4.50;;;21.00;73.10;;;;;;4991059;28;20030;-82
2021/09/11 11:32:20;;;;;;;6.22;4.47;;;21.00;73.10;;;;;;4991708;28;20386;-84
2021/09/11 11:34:48;;;;;;;7.72;4.32;;;21.00;73.00;;;;;;4992447;28;20258;-83
2021/09/11 11:37:14;;;;;;;8.00;4.60;;;21.00;73.10;;;;;;4991737;28;20159;-83
2021/09/11 11:39:42;;;;;;;5.20;3.92;;;21.00;72.90;;;;;;4991969;28;20041;-83
2021/09/11 11:42:11;;;;;;;7.10;4.72;;;21.00;72.80;;;;;;4991654;28;20121;-84
2021/09/11 11:44:42;;;;;;;6.07;4.63;;;21.00;72.90;;;;;;4990079;28;20050;-83
2021/09/11 11:47:27;;;;;;;7.63;4.30;;;21.00;73.00;;;;;;4990874;28;20031;-83
2021/09/11 11:49:53;;;;;;;7.75;4.07;;;21.00;72.90;;;;;;4992899;28;20236;-83
2021/09/11 11:52:21;;;;;;;12.50;4.90;;;21.00;73.00;;;;;;4963867;28;20358;-82
2021/09/11 11:54:49;;;;;;;6.10;4.47;;;21.00;72.90;;;;;;4989974;28;20034;-82
2021/09/11 11:57:17;;;;;;;9.50;4.47;;;20.90;72.90;;;;;;4992690;28;20070;-84
2021/09/11 11:59:44;;;;;;;7.35;4.28;;;20.90;73.10;;;;;;5008074;28;20174;-83
2021/09/11 12:02:24;;;;;;;8.93;4.82;;;20.90;73.10;;;;;;4992779;28;20045;-83
2021/09/11 12:04:54;;;;;;;10.57;4.60;;;20.90;73.10;;;;;;4982101;28;20066;-83
2021/09/11 12:07:33;;;;;;;7.55;5.03;;;20.90;73.20;;;;;;4978928;28;20092;-83
2021/09/11 12:10:00;;;;;;;8.35;4.05;;;20.90;73.10;;;;;;4988682;28;20129;-83
2021/09/11 12:12:28;;;;;;;7.40;4.65;;;20.90;73.10;;;;;;4978862;28;20030;-82
2021/09/11 12:14:55;;;;;;;9.88;4.90;;;20.80;73.30;;;;;;4992244;28;20039;-83
2021/09/11 12:17:21;;;;;;;7.55;4.88;;;20.80;73.40;;;;;;4990853;28;20034;-83
2021/09/11 12:19:46;;;;;;;8.65;4.88;;;20.80;73.60;;;;;;4989702;28;20038;-82
2021/09/11 12:22:25;;;;;;;8.20;4.25;;;20.80;73.70;;;;;;4995071;28;20045;-83
2021/09/11 12:25:00;;;;;;;8.32;4.30;;;20.80;73.80;;;;;;4995627;28;20052;-83
2021/09/11 12:27:27;;;;;;;;;;;20.80;74.00;;;;;;4994794;28;20567;-82
2021/09/11 12:30:07;;;;;;;5.85;4.75;;;20.80;74.20;;;;;;4996503;28;20015;-84
2021/09/11 12:32:34;;;;;;;7.13;4.60;;;20.80;74.30;;;;;;4982812;28;20099;-84
2021/09/11 12:35:10;;;;;;;6.97;4.15;;;20.80;74.30;;;;;;4995765;28;20038;-83
2021/09/11 12:37:55;;;;;;;7.18;4.32;;;20.80;74.60;;;;;;4995515;28;20058;-83
2021/09/11 12:40:21;;;;;;;6.43;4.43;;;20.80;74.70;;;;;;4994754;28;20038;-83
2021/09/11 12:42:47;;;;;;;7.30;4.15;;;20.80;74.80;;;;;;4994577;28;20049;-83
2021/09/11 12:45:13;;;;;;;5.63;4.45;;;20.80;74.80;;;;;;4994585;28;20030;-83
2021/09/11 12:47:39;;;;;;;7.82;4.40;;;20.80;75.00;;;;;;4996640;28;20039;-83
2021/09/11 12:50:06;;;;;;;9.48;4.38;;;20.80;75.00;;;;;;4995353;28;20049;-83